Time;durP1;ratioP1;P1;durP2;ratioP2;P2;SDS_P1;SDS_P2;PMS_P1;PMS_P2;Temp;Humidity;BMP_temperature;BMP_pressure;BME280_temperature;BME280_humidity;BME280_pressure;Samples;Min_cycle;Max_cycle;Signal;HPM_P1;HPM_P2
2022/03/04 00:01:58;;;;;;;24.17;10.07;;;6.60;51.30;;;;;;5079757;28;20266;-86
2022/03/04 00:04:24;;;;;;;22.45;11.52;;;6.60;51.40;;;;;;5095739;28;20195;-86
2022/03/04 00:06:50;;;;;;;18.23;10.77;;;6.50;51.40;;;;;;5096338;28;20186;-86
2022/03/04 00:09:16;;;;;;;17.73;10.50;;;6.50;51.70;;;;;;5096817;28;20180;-86
2022/03/04 00:11:42;;;;;;;17.80;10.63;;;6.50;51.70;;;;;;5096934;28;20418;-85
2022/03/04 00:14:11;;;;;;;29.75;12.55;;;6.50;51.70;;;;;;5096702;28;20438;-85
2022/03/04 00:16:36;;;;;;;22.55;10.90;;;6.50;51.70;;;;;;5097142;28;20194;-85
2022/03/04 00:19:10;;;;;;;22.70;11.07;;;6.50;52.50;;;;;;5077898;28;20256;-86
2022/03/04 00:21:50;;;;;;;21.92;11.73;;;6.60;51.60;;;;;;5098823;28;20448;-85
2022/03/04 00:24:17;;;;;;;16.25;10.32;;;6.70;51.70;;;;;;5085927;28;20196;-86
2022/03/04 00:26:44;;;;;;;18.27;10.23;;;6.60;51.60;;;;;;5085563;28;20179;-86
2022/03/04 00:29:10;;;;;;;21.42;12.20;;;6.60;51.60;;;;;;5107051;28;20180;-85
2022/03/04 00:31:36;;;;;;;18.88;10.75;;;6.60;51.60;;;;;;5101747;28;20652;-85
2022/03/04 00:34:06;;;;;;;15.50;10.63;;;6.50;51.50;;;;;;5095750;28;20667;-85
2022/03/04 00:36:37;;;;;;;20.02;10.38;;;6.50;51.60;;;;;;5096118;28;20520;-85
2022/03/04 00:39:06;;;;;;;22.30;12.45;;;6.50;51.60;;;;;;5097341;28;20212;-87
2022/03/04 00:41:33;;;;;;;18.13;11.07;;;6.30;51.90;;;;;;5097506;28;20178;-85
2022/03/04 00:43:58;;;;;;;16.98;11.00;;;6.30;52.00;;;;;;5097856;28;20592;-85
2022/03/04 00:46:24;;;;;;;18.70;10.20;;;6.30;52.10;;;;;;5096597;28;20176;-85
2022/03/04 00:48:50;;;;;;;24.08;12.35;;;6.30;52.10;;;;;;5096181;28;20180;-85
2022/03/04 00:51:16;;;;;;;25.37;11.23;;;6.20;52.20;;;;;;5096182;28;20207;-85
2022/03/04 00:53:42;;;;;;;19.57;11.30;;;6.20;52.30;;;;;;5097366;28;20933;-85
2022/03/04 00:56:09;;;;;;;20.33;11.07;;;6.40;52.30;;;;;;5097811;28;20184;-85
2022/03/04 00:58:36;;;;;;;20.95;12.43;;;6.10;52.10;;;;;;5101193;28;20202;-85
2022/03/04 01:01:02;;;;;;;16.70;10.80;;;6.10;52.30;;;;;;5106336;28;20207;-85
2022/03/04 01:03:28;;;;;;;22.88;10.63;;;6.20;52.40;;;;;;5098084;28;20200;-86
2022/03/04 01:05:54;;;;;;;18.10;10.60;;;6.00;52.40;;;;;;5100974;28;20199;-86
2022/03/04 01:08:20;;;;;;;17.37;10.37;;;6.00;52.60;;;;;;5101215;28;20195;-85
2022/03/04 01:10:47;;;;;;;20.23;12.95;;;5.90;52.90;;;;;;5101936;28;20274;-85
2022/03/04 01:13:13;;;;;;;21.38;10.70;;;5.80;53.00;;;;;;5103669;28;20665;-85
2022/03/04 01:15:39;;;;;;;21.75;10.88;;;6.00;52.90;;;;;;5091492;28;20249;-85
2022/03/04 01:18:05;;;;;;;22.65;13.70;;;5.90;52.90;;;;;;5113258;28;20299;-86
2022/03/04 01:20:31;;;;;;;25.17;10.83;;;5.70;53.00;;;;;;5113868;28;20175;-85
2022/03/04 01:23:00;;;;;;;18.57;10.13;;;5.80;53.00;;;;;;5101317;28;20187;-85
2022/03/04 01:25:26;;;;;;;20.23;11.40;;;5.90;53.20;;;;;;5102043;28;20446;-85
2022/03/04 01:27:52;;;;;;;23.52;13.30;;;5.90;53.20;;;;;;5102472;28;20225;-85
2022/03/04 01:30:18;;;;;;;20.63;12.13;;;6.00;53.00;;;;;;5101651;28;20172;-85
2022/03/04 01:32:45;;;;;;;20.02;10.98;;;6.00;53.00;;;;;;5098204;28;20180;-85
2022/03/04 01:35:11;;;;;;;23.65;11.77;;;6.10;53.10;;;;;;5097634;28;20817;-86
2022/03/04 01:37:38;;;;;;;25.23;13.07;;;6.00;52.90;;;;;;5098352;28;20203;-85
2022/03/04 01:40:06;;;;;;;26.23;13.65;;;6.00;53.00;;;;;;5097599;28;20180;-85
2022/03/04 01:42:32;;;;;;;23.35;13.05;;;6.00;53.10;;;;;;5097496;28;20174;-85
2022/03/04 01:44:57;;;;;;;28.57;14.27;;;5.80;53.20;;;;;;5098608;28;20196;-86
2022/03/04 01:47:23;;;;;;;24.27;13.27;;;5.80;53.40;;;;;;5098985;28;20426;-87
2022/03/04 01:49:49;;;;;;;24.30;13.37;;;5.80;53.50;;;;;;5097815;28;20179;-85
2022/03/04 01:52:16;;;;;;;23.27;11.95;;;5.70;53.50;;;;;;5098768;28;20175;-84
2022/03/04 01:54:42;;;;;;;22.85;12.75;;;5.70;53.70;;;;;;5097146;28;20199;-85
2022/03/04 01:57:09;;;;;;;21.97;11.20;;;5.50;53.70;;;;;;5098065;28;20191;-85
2022/03/04 01:59:35;;;;;;;20.05;11.50;;;5.40;53.90;;;;;;5097444;28;20417;-85
2022/03/04 02:02:01;;;;;;;27.08;14.20;;;5.40;54.20;;;;;;5098214;28;20191;-84
2022/03/04 02:04:27;;;;;;;33.07;13.90;;;5.30;54.40;;;;;;5098346;28;20560;-85
2022/03/04 02:06:53;;;;;;;21.02;12.25;;;5.30;54.60;;;;;;5098395;28;20965;-85
2022/03/04 02:09:19;;;;;;;27.15;12.88;;;5.20;54.70;;;;;;5080678;28;20595;-84
2022/03/04 02:11:45;;;;;;;21.08;12.85;;;5.20;54.80;;;;;;5078374;28;20643;-85
2022/03/04 02:14:12;;;;;;;25.90;12.80;;;5.20;54.90;;;;;;5097619;28;20683;-86
2022/03/04 02:16:43;;;;;;;23.15;13.45;;;5.30;55.00;;;;;;5098676;28;20740;-85
2022/03/04 02:19:09;;;;;;;20.45;11.95;;;5.40;54.90;;;;;;5099950;28;20184;-87
2022/03/04 02:21:35;;;;;;;20.58;12.30;;;5.40;54.70;;;;;;5097080;28;20789;-85
2022/03/04 02:24:02;;;;;;;29.38;13.38;;;5.30;54.70;;;;;;5101331;28;20223;-86
2022/03/04 02:26:28;;;;;;;22.25;12.00;;;5.30;54.70;;;;;;5099383;28;20239;-85
2022/03/04 02:28:58;;;;;;;25.77;13.17;;;5.30;54.60;;;;;;5101624;28;20219;-85
2022/03/04 02:31:23;;;;;;;20.38;12.27;;;5.20;54.50;;;;;;5102524;28;20215;-85
2022/03/04 02:33:50;;;;;;;24.10;13.27;;;5.20;54.60;;;;;;5098066;28;20228;-85
2022/03/04 02:36:16;;;;;;;20.42;12.80;;;5.30;54.70;;;;;;5103192;28;20184;-84
2022/03/04 02:38:42;;;;;;;20.77;12.90;;;5.30;54.60;;;;;;5100713;28;20239;-84
2022/03/04 02:41:08;;;;;;;24.53;13.27;;;5.40;54.50;;;;;;5102064;28;20547;-84
2022/03/04 02:43:34;;;;;;;22.37;13.27;;;5.50;54.20;;;;;;5104250;28;20471;-86
2022/03/04 02:46:00;;;;;;;18.67;12.13;;;5.50;54.10;;;;;;5098104;28;20179;-85
2022/03/04 02:48:26;;;;;;;24.40;11.90;;;5.50;54.00;;;;;;5097071;28;20184;-86
2022/03/04 02:50:51;;;;;;;22.13;12.45;;;5.40;53.90;;;;;;5097221;28;20418;-85
2022/03/04 02:53:17;;;;;;;25.77;12.90;;;5.40;53.90;;;;;;5097746;28;20214;-84
2022/03/04 02:55:43;;;;;;;20.97;11.90;;;5.40;54.00;;;;;;5097961;28;20202;-84
2022/03/04 02:58:09;;;;;;;24.93;11.80;;;5.40;54.00;;;;;;5098006;28;20718;-84
2022/03/04 03:00:35;;;;;;;27.37;12.70;;;5.30;53.90;;;;;;5098481;28;20467;-84
2022/03/04 03:03:01;;;;;;;18.33;11.88;;;5.20;53.90;;;;;;5099732;28;20201;-84
2022/03/04 03:05:27;;;;;;;27.75;13.23;;;5.00;54.20;;;;;;5098791;28;20652;-84
2022/03/04 03:07:53;;;;;;;25.17;11.75;;;5.10;54.40;;;;;;5099725;28;20228;-84
2022/03/04 03:10:19;;;;;;;19.88;11.30;;;5.20;54.20;;;;;;5098543;28;20184;-84
2022/03/04 03:12:45;;;;;;;20.60;12.03;;;5.10;54.60;;;;;;5098345;28;20198;-84
2022/03/04 03:15:12;;;;;;;28.50;13.67;;;5.10;54.10;;;;;;5100353;28;20492;-84
2022/03/04 03:17:38;;;;;;;22.30;11.85;;;5.10;54.10;;;;;;5098596;28;20207;-84
2022/03/04 03:20:06;;;;;;;21.85;12.75;;;5.10;54.50;;;;;;5098128;28;20242;-84
2022/03/04 03:22:31;;;;;;;24.60;13.43;;;5.10;54.50;;;;;;5099549;28;20172;-84
2022/03/04 03:24:57;;;;;;;23.87;12.73;;;4.90;54.60;;;;;;5106633;28;20259;-85
2022/03/04 03:27:23;;;;;;;17.70;11.37;;;4.80;54.70;;;;;;5108907;28;20198;-84
2022/03/04 03:29:49;;;;;;;24.30;12.83;;;4.80;54.90;;;;;;5101845;28;21016;-84
2022/03/04 03:32:15;;;;;;;19.15;10.15;;;4.80;55.00;;;;;;5102192;28;20199;-84
2022/03/04 03:34:42;;;;;;;19.52;11.57;;;4.70;55.10;;;;;;5095067;28;20203;-83
2022/03/04 03:37:09;;;;;;;22.35;10.90;;;4.80;55.20;;;;;;5094935;28;20249;-85
2022/03/04 03:39:36;;;;;;;20.15;11.98;;;4.80;55.10;;;;;;5094892;28;20570;-84
2022/03/04 03:42:02;;;;;;;22.15;11.90;;;4.90;55.30;;;;;;5094824;28;20176;-84
2022/03/04 03:44:28;;;;;;;21.25;12.02;;;5.00;55.10;;;;;;5095585;28;20215;-84
2022/03/04 03:46:55;;;;;;;23.83;11.77;;;5.10;55.00;;;;;;5094026;28;20180;-85
2022/03/04 03:49:21;;;;;;;20.38;11.77;;;5.00;54.70;;;;;;5074011;28;20957;-84
2022/03/04 03:51:48;;;;;;;26.38;13.15;;;5.10;54.80;;;;;;5077032;28;20181;-84
2022/03/04 03:54:14;;;;;;;23.77;12.07;;;5.00;54.80;;;;;;5078755;28;20208;-85
2022/03/04 03:56:40;;;;;;;22.00;12.57;;;4.90;54.90;;;;;;5101862;28;20212;-85
2022/03/04 03:59:06;;;;;;;22.33;13.60;;;4.90;55.10;;;;;;5101125;28;20171;-85
2022/03/04 04:01:31;;;;;;;24.15;13.02;;;4.80;55.20;;;;;;5099595;28;20199;-84
2022/03/04 04:03:58;;;;;;;22.93;11.00;;;4.70;55.40;;;;;;5096692;28;20707;-84
2022/03/04 04:06:23;;;;;;;24.85;13.38;;;4.60;55.80;;;;;;5096282;28;20428;-86
2022/03/04 04:08:49;;;;;;;26.63;12.73;;;4.40;56.00;;;;;;5094391;28;20629;-84
2022/03/04 04:11:15;;;;;;;23.20;11.03;;;4.50;56.30;;;;;;5095514;28;20418;-84
2022/03/04 04:13:41;;;;;;;22.63;13.30;;;4.50;56.60;;;;;;5097003;28;20505;-84
2022/03/04 04:16:06;;;;;;;23.03;12.57;;;4.60;56.50;;;;;;5095730;28;20195;-86
2022/03/04 04:18:32;;;;;;;27.57;11.90;;;4.70;56.60;;;;;;5094791;28;20196;-84
2022/03/04 04:21:06;;;;;;;25.93;12.60;;;4.70;56.50;;;;;;5095155;28;20421;-84
2022/03/04 04:23:32;;;;;;;24.02;12.70;;;4.50;56.40;;;;;;5095040;28;20221;-85
2022/03/04 04:25:57;;;;;;;26.37;11.13;;;4.50;56.70;;;;;;5094303;28;20176;-84
2022/03/04 04:28:25;;;;;;;18.40;11.23;;;4.60;56.70;;;;;;5095239;28;20430;-85
2022/03/04 04:30:51;;;;;;;26.52;12.38;;;4.50;56.80;;;;;;5094663;28;20426;-84
2022/03/04 04:33:17;;;;;;;23.10;12.95;;;4.50;57.60;;;;;;5096257;28;20261;-84
2022/03/04 04:35:43;;;;;;;21.65;11.85;;;4.50;57.00;;;;;;5099365;28;20195;-84
2022/03/04 04:38:09;;;;;;;29.55;12.60;;;4.50;57.20;;;;;;5100622;28;20200;-84
2022/03/04 04:40:35;;;;;;;22.87;12.27;;;4.50;57.20;;;;;;5101795;28;20557;-83
2022/03/04 04:43:00;;;;;;;23.63;11.80;;;4.40;57.10;;;;;;5089769;28;20168;-84
2022/03/04 04:45:26;;;;;;;20.63;12.33;;;4.30;57.40;;;;;;5100275;28;20469;-84
2022/03/04 04:47:52;;;;;;;22.03;11.13;;;4.50;57.50;;;;;;5104285;28;20180;-86
2022/03/04 04:50:18;;;;;;;24.00;12.60;;;4.50;57.30;;;;;;5114138;28;20441;-87
2022/03/04 04:52:43;;;;;;;25.33;13.40;;;4.50;57.10;;;;;;5108506;28;20414;-84
2022/03/04 04:55:09;;;;;;;30.63;14.10;;;4.50;57.10;;;;;;5099881;28;20210;-84
2022/03/04 04:57:36;;;;;;;21.27;12.20;;;4.40;57.20;;;;;;5099765;28;20301;-84
2022/03/04 05:00:03;;;;;;;24.27;10.95;;;4.30;57.30;;;;;;5099603;28;20413;-85
2022/03/04 05:02:29;;;;;;;24.63;12.68;;;4.20;57.40;;;;;;5098603;28;20220;-84
2022/03/04 05:04:55;;;;;;;32.97;12.00;;;4.20;57.60;;;;;;5097704;28;20755;-84
2022/03/04 05:07:20;;;;;;;22.73;11.60;;;4.10;57.60;;;;;;5099502;28;20198;-85
2022/03/04 05:09:46;;;;;;;24.10;11.77;;;4.00;58.00;;;;;;5099109;28;20180;-86
2022/03/04 05:12:12;;;;;;;20.97;11.40;;;3.90;58.40;;;;;;5098369;28;20195;-84
2022/03/04 05:14:38;;;;;;;23.53;13.50;;;3.90;58.60;;;;;;5098106;28;20218;-84
2022/03/04 05:17:08;;;;;;;21.53;11.30;;;3.80;58.70;;;;;;5098492;28;20253;-84
2022/03/04 05:19:33;;;;;;;25.05;12.75;;;3.80;59.00;;;;;;5097948;28;20489;-84
2022/03/04 05:21:59;;;;;;;19.03;10.97;;;3.90;59.10;;;;;;5101345;28;20203;-85
2022/03/04 05:24:25;;;;;;;23.97;11.67;;;3.90;59.00;;;;;;5104821;28;20191;-86
2022/03/04 05:26:51;;;;;;;24.17;11.97;;;3.80;59.10;;;;;;5104118;28;20255;-88
2022/03/04 05:29:16;;;;;;;19.57;12.97;;;3.70;59.30;;;;;;5100201;28;20410;-88
2022/03/04 05:31:43;;;;;;;25.10;12.70;;;3.80;59.70;;;;;;5104829;28;20459;-87
2022/03/04 05:34:10;;;;;;;19.85;11.65;;;3.80;59.60;;;;;;5100922;28;20192;-88
2022/03/04 05:36:39;;;;;;;20.30;12.02;;;3.80;59.60;;;;;;5096702;28;20183;-87
2022/03/04 05:39:05;;;;;;;25.83;13.63;;;3.70;59.60;;;;;;5095780;28;20186;-88
2022/03/04 05:41:38;;;;;;;27.02;13.23;;;3.70;59.80;;;;;;5097413;28;20186;-87
2022/03/04 05:44:04;;;;;;;25.02;12.68;;;3.80;59.80;;;;;;5095080;28;20207;-87
2022/03/04 05:46:31;;;;;;;20.20;12.02;;;3.60;59.70;;;;;;5098982;28;20270;-88
2022/03/04 05:48:57;;;;;;;28.40;13.80;;;3.60;60.00;;;;;;5096779;28;20179;-88
2022/03/04 05:51:22;;;;;;;24.33;13.00;;;3.60;60.00;;;;;;5096245;28;20187;-88
2022/03/04 05:53:49;;;;;;;22.13;13.33;;;3.70;60.10;;;;;;5094839;28;20536;-88
2022/03/04 05:56:15;;;;;;;21.58;11.32;;;3.70;59.90;;;;;;5096878;28;20471;-87
2022/03/04 05:58:42;;;;;;;23.38;12.90;;;3.50;60.00;;;;;;5097593;28;20687;-88
2022/03/04 06:01:07;;;;;;;21.40;11.25;;;3.60;60.10;;;;;;5099606;28;20223;-88
2022/03/04 06:03:34;;;;;;;25.83;13.67;;;3.60;60.00;;;;;;5097809;28;20690;-88
2022/03/04 06:06:00;;;;;;;25.85;12.07;;;3.60;60.00;;;;;;5098399;28;20168;-87
2022/03/04 06:08:26;;;;;;;20.75;11.10;;;3.50;60.10;;;;;;5098754;28;20191;-88
2022/03/04 06:10:52;;;;;;;27.83;11.80;;;3.50;60.10;;;;;;5079171;28;20561;-87
2022/03/04 06:13:17;;;;;;;22.37;11.57;;;3.30;60.40;;;;;;5097560;28;20258;-88
2022/03/04 06:15:43;;;;;;;32.63;12.90;;;3.30;60.50;;;;;;5095110;28;20201;-87
2022/03/04 06:18:15;;;;;;;25.60;12.53;;;3.30;60.50;;;;;;5096446;28;20249;-88
2022/03/04 06:20:41;;;;;;;29.85;11.65;;;3.30;60.70;;;;;;5095593;28;20418;-88
2022/03/04 06:23:06;;;;;;;23.33;11.20;;;3.30;60.60;;;;;;5102877;28;20171;-85
2022/03/04 06:25:32;;;;;;;22.67;11.20;;;3.40;60.60;;;;;;5113641;28;20203;-88
2022/03/04 06:28:01;;;;;;;24.73;12.53;;;3.50;60.50;;;;;;5102042;28;20660;-88
2022/03/04 06:30:32;;;;;;;26.55;12.65;;;3.40;60.30;;;;;;5097858;28;20188;-88
2022/03/04 06:35:44;;;;;;;23.60;12.07;;;3.50;60.10;;;;;;5089035;28;20194;-87
2022/03/04 06:38:10;;;;;;;25.45;12.02;;;3.30;60.10;;;;;;5095132;28;20267;-88
2022/03/04 06:40:36;;;;;;;23.70;11.98;;;3.10;60.50;;;;;;5096417;28;20648;-88
2022/03/04 06:43:04;;;;;;;25.52;13.43;;;3.10;61.00;;;;;;5094496;28;20640;-87
2022/03/04 06:45:36;;;;;;;25.13;12.98;;;3.30;61.00;;;;;;5094317;28;20176;-88
2022/03/04 06:48:02;;;;;;;26.52;12.60;;;3.30;60.80;;;;;;5094890;28;20389;-89
2022/03/04 06:50:28;;;;;;;28.13;11.55;;;3.50;60.80;;;;;;5096495;28;20227;-88
2022/03/04 06:52:55;;;;;;;25.95;12.15;;;3.50;60.70;;;;;;5099487;28;20213;-86
2022/03/04 06:55:21;;;;;;;22.13;12.63;;;3.50;60.30;;;;;;5094471;28;20227;-88
2022/03/04 06:57:51;;;;;;;22.15;11.45;;;3.50;60.10;;;;;;5098628;28;20196;-88
2022/03/04 07:00:17;;;;;;;21.05;12.50;;;3.60;60.00;;;;;;5099451;28;20190;-87
2022/03/04 07:02:44;;;;;;;22.63;12.45;;;3.60;60.00;;;;;;5097916;28;20188;-88
2022/03/04 07:05:10;;;;;;;24.88;12.85;;;3.50;59.80;;;;;;5095011;28;20231;-87
2022/03/04 07:07:37;;;;;;;25.98;13.40;;;3.70;59.90;;;;;;5095448;28;20199;-88
2022/03/04 07:10:04;;;;;;;28.35;13.10;;;3.70;59.80;;;;;;5097839;28;20259;-88
2022/03/04 07:12:30;;;;;;;25.40;12.80;;;3.70;59.60;;;;;;5094711;28;20210;-87
2022/03/04 07:14:56;;;;;;;27.45;14.15;;;3.70;60.30;;;;;;5095682;28;20204;-88
2022/03/04 07:17:22;;;;;;;21.60;11.70;;;3.80;59.50;;;;;;5096061;28;20199;-88
2022/03/04 07:19:48;;;;;;;20.83;12.40;;;3.80;59.40;;;;;;5098197;28;20534;-88
2022/03/04 07:22:14;;;;;;;27.03;14.30;;;3.90;59.70;;;;;;5099047;28;20183;-88
2022/03/04 07:24:40;;;;;;;25.93;13.10;;;3.80;59.40;;;;;;5101357;28;20430;-87
2022/03/04 07:27:06;;;;;;;24.20;13.70;;;3.60;59.50;;;;;;5092034;28;20168;-89
2022/03/04 07:29:36;;;;;;;31.90;14.63;;;3.60;59.90;;;;;;5093415;28;20426;-88
2022/03/04 07:32:02;;;;;;;23.15;12.95;;;3.50;60.00;;;;;;5094142;28;20417;-89
2022/03/04 07:34:28;;;;;;;28.15;12.95;;;3.50;60.20;;;;;;5097116;28;20251;-89
2022/03/04 07:36:54;;;;;;;19.70;12.43;;;3.50;60.50;;;;;;5098079;28;20225;-85
2022/03/04 07:39:20;;;;;;;26.97;13.17;;;3.40;60.60;;;;;;5098994;28;20421;-84
2022/03/04 07:41:51;;;;;;;25.05;12.55;;;3.50;60.70;;;;;;5095537;28;20180;-84
2022/03/04 07:44:19;;;;;;;23.73;12.85;;;3.60;60.40;;;;;;5096075;28;20260;-87
2022/03/04 07:46:47;;;;;;;28.90;13.63;;;3.60;60.10;;;;;;5095196;28;20176;-87
2022/03/04 07:49:13;;;;;;;27.40;13.57;;;3.60;60.00;;;;;;5093724;28;20187;-87
2022/03/04 07:51:39;;;;;;;24.10;14.02;;;3.60;59.80;;;;;;5093515;28;20258;-87
2022/03/04 07:54:05;;;;;;;29.15;13.48;;;3.50;59.80;;;;;;5092359;28;20230;-87
2022/03/04 07:56:30;;;;;;;26.67;12.27;;;3.60;59.60;;;;;;5093295;28;20172;-87
2022/03/04 07:58:57;;;;;;;22.37;13.47;;;3.40;59.70;;;;;;5091653;28;20457;-89
2022/03/04 08:01:23;;;;;;;25.25;13.55;;;3.40;59.80;;;;;;5095618;28;20640;-88
2022/03/04 08:03:49;;;;;;;29.13;13.27;;;3.50;60.10;;;;;;5093044;28;20200;-87
2022/03/04 08:06:15;;;;;;;27.93;14.37;;;3.50;60.00;;;;;;5096208;28;20414;-87
2022/03/04 08:08:41;;;;;;;23.23;11.88;;;3.60;59.70;;;;;;5097616;28;20433;-85
2022/03/04 08:11:12;;;;;;;21.90;13.07;;;3.90;59.70;;;;;;5103738;28;20556;-87
2022/03/04 08:13:38;;;;;;;22.52;12.32;;;4.10;59.10;;;;;;5106294;28;20202;-87
2022/03/04 08:16:04;;;;;;;24.50;13.00;;;3.90;58.60;;;;;;5105688;28;20283;-87
2022/03/04 08:18:30;;;;;;;28.08;13.57;;;4.00;58.60;;;;;;5103186;28;20218;-86
2022/03/04 08:20:56;;;;;;;25.10;13.80;;;4.00;58.40;;;;;;5104717;28;20180;-88
2022/03/04 08:23:21;;;;;;;29.37;14.17;;;4.10;58.20;;;;;;5107256;28;20429;-87
2022/03/04 08:25:49;;;;;;;26.30;13.40;;;4.00;58.20;;;;;;5100498;28;20449;-85
2022/03/04 08:28:15;;;;;;;29.75;13.02;;;4.10;58.10;;;;;;5098239;28;20421;-87
2022/03/04 08:30:41;;;;;;;27.80;13.75;;;4.30;58.20;;;;;;5102281;28;20425;-87
2022/03/04 08:33:07;;;;;;;25.73;13.00;;;4.40;57.40;;;;;;5100711;28;20211;-86
2022/03/04 08:35:32;;;;;;;26.67;13.23;;;4.40;57.10;;;;;;5097935;28;20588;-88
2022/03/04 08:38:00;;;;;;;19.20;12.80;;;4.40;56.80;;;;;;5076709;28;20596;-88
2022/03/04 08:40:25;;;;;;;22.38;12.95;;;4.40;56.80;;;;;;5095415;28;20785;-87
2022/03/04 08:42:51;;;;;;;25.90;13.03;;;4.50;56.80;;;;;;5098701;28;20203;-87
2022/03/04 08:45:17;;;;;;;26.27;13.80;;;4.60;56.60;;;;;;5097078;28;20437;-88
2022/03/04 08:47:46;;;;;;;25.33;13.00;;;4.70;56.70;;;;;;5097505;28;20183;-87
2022/03/04 08:50:13;;;;;;;29.08;13.98;;;5.00;56.40;;;;;;5098016;28;20414;-88
2022/03/04 08:52:40;;;;;;;21.85;11.90;;;5.20;55.80;;;;;;5097019;28;20179;-87
2022/03/04 08:55:07;;;;;;;24.10;14.45;;;5.40;55.30;;;;;;5098720;28;20203;-86
2022/03/04 08:57:33;;;;;;;24.02;13.10;;;5.50;55.00;;;;;;5096287;28;20203;-87
2022/03/04 09:00:00;;;;;;;26.23;12.23;;;5.40;54.10;;;;;;5098806;28;20198;-87
2022/03/04 09:02:25;;;;;;;23.30;13.73;;;5.50;54.30;;;;;;5098173;28;20417;-86
2022/03/04 09:04:51;;;;;;;21.77;13.80;;;5.80;53.90;;;;;;5096937;28;20566;-86
2022/03/04 09:07:17;;;;;;;21.73;12.43;;;5.70;53.30;;;;;;5095981;28;20183;-87
2022/03/04 09:09:43;;;;;;;18.60;12.67;;;5.80;53.60;;;;;;5096346;28;20179;-87
2022/03/04 09:12:09;;;;;;;21.58;13.30;;;6.10;53.40;;;;;;5096400;28;20263;-87
2022/03/04 09:14:36;;;;;;;25.55;13.30;;;6.10;53.10;;;;;;5096039;28;20207;-87
2022/03/04 09:17:02;;;;;;;21.60;13.07;;;6.30;52.80;;;;;;5099404;28;20171;-87
2022/03/04 09:19:30;;;;;;;19.00;11.95;;;6.30;52.20;;;;;;5096655;28;20176;-87
2022/03/04 09:21:56;;;;;;;23.92;12.68;;;6.50;51.70;;;;;;5099619;28;20266;-87
2022/03/04 09:24:22;;;;;;;23.23;12.20;;;6.60;51.20;;;;;;5101331;28;20192;-87
2022/03/04 09:26:48;;;;;;;20.97;11.40;;;6.60;50.80;;;;;;5096249;28;20176;-86
2022/03/04 09:29:13;;;;;;;25.57;12.73;;;6.60;50.80;;;;;;5096870;28;20176;-85
2022/03/04 09:31:39;;;;;;;20.57;12.80;;;6.70;50.80;;;;;;5098321;28;20179;-86
2022/03/04 09:34:09;;;;;;;21.75;12.65;;;6.70;50.30;;;;;;5096328;28;20558;-86
2022/03/04 09:36:35;;;;;;;20.02;11.65;;;6.70;50.20;;;;;;5096914;28;20190;-86
2022/03/04 09:39:01;;;;;;;23.17;13.60;;;6.70;50.00;;;;;;5097548;28;20196;-86
2022/03/04 09:41:27;;;;;;;22.60;12.83;;;6.90;50.00;;;;;;5096145;28;20205;-86
2022/03/04 09:43:56;;;;;;;29.57;13.97;;;7.10;49.90;;;;;;5095178;28;20495;-86
2022/03/04 09:46:22;;;;;;;23.02;12.23;;;7.20;49.80;;;;;;5096026;28;20414;-86
2022/03/04 09:48:52;;;;;;;24.77;12.05;;;7.40;49.30;;;;;;5097043;28;20218;-86
2022/03/04 09:51:20;;;;;;;22.20;11.65;;;7.40;48.70;;;;;;5099109;28;20739;-86
2022/03/04 09:53:46;;;;;;;20.70;11.95;;;7.40;48.60;;;;;;5096177;28;20208;-87
2022/03/04 09:56:13;;;;;;;17.83;11.27;;;7.70;48.60;;;;;;5099528;28;20168;-87
2022/03/04 09:58:39;;;;;;;24.27;12.88;;;7.60;47.40;;;;;;5100715;28;20873;-86
2022/03/04 10:01:12;;;;;;;23.20;12.55;;;7.60;47.20;;;;;;5099187;28;20835;-86
2022/03/04 10:03:43;;;;;;;26.35;12.63;;;7.70;47.60;;;;;;5096772;28;20537;-86
2022/03/04 10:06:09;;;;;;;26.23;14.35;;;7.90;47.40;;;;;;5097419;28;20205;-86
2022/03/04 10:08:43;;;;;;;32.73;13.30;;;7.90;47.20;;;;;;5095095;28;20238;-86
2022/03/04 10:11:09;;;;;;;25.30;13.25;;;8.10;47.40;;;;;;5096784;28;20180;-86
2022/03/04 10:13:48;;;;;;;22.50;11.98;;;8.20;47.20;;;;;;5094883;28;20211;-85
2022/03/04 10:16:35;;;;;;;20.00;11.77;;;8.20;46.30;;;;;;5095348;28;20183;-86
2022/03/04 10:19:15;;;;;;;18.90;11.10;;;8.40;45.90;;;;;;5095822;28;20702;-86
2022/03/04 10:21:45;;;;;;;18.42;11.05;;;8.50;45.60;;;;;;5095640;28;20168;-86
2022/03/04 10:24:11;;;;;;;20.70;11.70;;;8.50;44.80;;;;;;5094681;28;20200;-86
2022/03/04 10:26:36;;;;;;;23.57;13.50;;;8.70;45.00;;;;;;5095077;28;20259;-86
2022/03/04 10:29:21;;;;;;;20.20;12.00;;;8.60;44.70;;;;;;5095843;28;20433;-86
2022/03/04 10:32:05;;;;;;;22.67;12.13;;;8.60;44.50;;;;;;5095529;28;20176;-85
2022/03/04 10:34:42;;;;;;;22.02;11.60;;;8.50;44.40;;;;;;5087818;28;20219;-86
2022/03/04 10:37:08;;;;;;;26.15;12.63;;;8.70;44.30;;;;;;5095958;28;20181;-86
2022/03/04 10:39:34;;;;;;;21.87;12.50;;;8.80;44.00;;;;;;5095059;28;20200;-85
2022/03/04 10:41:59;;;;;;;18.90;11.93;;;9.00;43.70;;;;;;5094777;28;20180;-87
2022/03/04 10:44:26;;;;;;;18.10;11.27;;;9.10;43.80;;;;;;5095288;28;20200;-87
2022/03/04 10:46:58;;;;;;;30.75;12.90;;;9.10;43.50;;;;;;5097974;28;20207;-87
2022/03/04 10:49:26;;;;;;;24.40;12.55;;;9.30;43.70;;;;;;5094774;28;20176;-86
2022/03/04 10:52:06;;;;;;;21.85;12.50;;;9.30;43.50;;;;;;5095109;28;20184;-86
2022/03/04 10:54:32;;;;;;;22.30;13.25;;;9.50;43.60;;;;;;5099141;28;20282;-86
2022/03/04 10:57:02;;;;;;;35.17;13.13;;;9.80;43.10;;;;;;5099318;28;20223;-86
2022/03/04 10:59:28;;;;;;;22.58;12.18;;;9.80;42.80;;;;;;5100263;28;20179;-87
2022/03/04 11:01:55;;;;;;;24.50;12.43;;;9.90;42.50;;;;;;5105941;28;20183;-86
2022/03/04 11:04:22;;;;;;;22.77;13.70;;;10.10;42.20;;;;;;5099201;28;20196;-86
2022/03/04 11:06:49;;;;;;;20.48;12.80;;;9.80;41.90;;;;;;5091844;28;20247;-86
2022/03/04 11:09:17;;;;;;;22.58;13.30;;;9.90;42.30;;;;;;5094940;28;20187;-86
2022/03/04 11:11:44;;;;;;;38.85;12.20;;;10.10;41.80;;;;;;5091735;28;20263;-86
2022/03/04 11:14:13;;;;;;;28.10;12.70;;;10.00;41.60;;;;;;5094597;28;20196;-87
2022/03/04 11:16:39;;;;;;;28.20;13.68;;;10.00;41.40;;;;;;5096923;28;20183;-86
2022/03/04 11:19:09;;;;;;;24.55;14.40;;;10.20;41.10;;;;;;5097383;28;20210;-87
2022/03/04 11:21:36;;;;;;;22.73;12.57;;;10.00;40.40;;;;;;5101039;28;20175;-87
2022/03/04 11:24:03;;;;;;;17.48;12.23;;;10.00;40.40;;;;;;5098433;28;20212;-86
2022/03/04 11:26:32;;;;;;;26.42;14.10;;;10.10;40.40;;;;;;5099411;28;20168;-86
2022/03/04 11:29:00;;;;;;;19.08;11.57;;;10.10;40.00;;;;;;5099158;28;20274;-85
2022/03/04 11:31:28;;;;;;;22.98;12.32;;;10.10;40.40;;;;;;5099781;28;20205;-87
2022/03/04 11:34:00;;;;;;;19.20;12.10;;;10.30;40.40;;;;;;5099762;28;20210;-86
2022/03/04 11:36:39;;;;;;;23.27;12.15;;;10.40;40.50;;;;;;5097307;28;20173;-87
2022/03/04 11:39:12;;;;;;;21.10;11.90;;;10.40;39.20;;;;;;5086628;28;20196;-86
2022/03/04 11:42:06;;;;;;;24.83;12.10;;;10.60;39.20;;;;;;5096887;28;20176;-87
2022/03/04 11:44:31;;;;;;;20.60;10.88;;;10.70;39.30;;;;;;5096212;28;20203;-86
2022/03/04 11:47:01;;;;;;;32.40;11.97;;;10.90;39.30;;;;;;5099369;28;20180;-86
2022/03/04 11:49:30;;;;;;;18.40;11.50;;;10.90;39.10;;;;;;5097098;28;20440;-87
2022/03/04 11:52:20;;;;;;;20.40;12.75;;;10.80;39.20;;;;;;5094927;28;20203;-86
2022/03/04 11:54:46;;;;;;;26.33;14.10;;;10.90;39.30;;;;;;5094257;28;20214;-86
2022/03/04 11:57:29;;;;;;;27.03;14.00;;;11.10;39.50;;;;;;5097558;28;20212;-87
2022/03/04 11:59:55;;;;;;;22.55;12.60;;;11.10;39.10;;;;;;5094715;28;20199;-87
2022/03/04 12:02:26;;;;;;;25.47;13.77;;;11.10;39.10;;;;;;5095965;28;20225;-85
2022/03/04 12:05:22;;;;;;;30.38;14.77;;;11.30;38.40;;;;;;5098999;28;20676;-86
2022/03/04 12:07:52;;;;;;;22.70;12.30;;;11.30;38.70;;;;;;5102634;28;20180;-86
2022/03/04 12:10:22;;;;;;;22.02;13.70;;;11.30;38.70;;;;;;5097799;28;20185;-86
2022/03/04 12:13:11;;;;;;;23.75;12.80;;;11.30;38.30;;;;;;5093648;28;20224;-86
2022/03/04 12:16:05;;;;;;;71.50;13.60;;;11.40;38.10;;;;;;5095127;28;20355;-85
2022/03/04 12:18:45;;;;;;;23.60;13.48;;;11.70;38.30;;;;;;5105064;28;20206;-86
2022/03/04 12:21:32;;;;;;;25.52;12.60;;;11.60;36.90;;;;;;5095503;28;20175;-87
2022/03/04 12:24:00;;;;;;;22.85;13.10;;;11.40;36.00;;;;;;5085179;28;20237;-86
2022/03/04 12:26:38;;;;;;;27.30;13.52;;;11.40;35.50;;;;;;5093102;28;20258;-86
2022/03/04 12:29:11;;;;;;;24.70;13.50;;;11.60;35.90;;;;;;5093067;28;20183;-88
2022/03/04 12:31:41;;;;;;;27.58;13.00;;;11.60;36.30;;;;;;5092593;28;20769;-87
2022/03/04 12:34:22;;;;;;;22.27;12.13;;;11.90;36.40;;;;;;5092535;28;20538;-87
2022/03/04 12:36:52;;;;;;;20.58;12.75;;;11.90;35.40;;;;;;5095065;28;20512;-87
2022/03/04 12:39:20;;;;;;;26.15;14.38;;;11.80;35.20;;;;;;5093660;28;20268;-87
2022/03/04 12:41:47;;;;;;;20.33;12.23;;;12.00;35.20;;;;;;5093556;28;20176;-87